sensor_id;sensor_type;location;lat;lon;timestamp;pressure;altitude;pressure_sealevel;temperature;humidity
55373;BME280;41249;47.838;16.490;2023-02-14T00:01:16;101287.94;;;-3.46;75.82
55373;BME280;41249;47.838;16.490;2023-02-14T00:03:43;101283.00;;;-3.49;76.12
55373;BME280;41249;47.838;16.490;2023-02-14T00:06:11;101289.00;;;-3.47;76.39
55373;BME280;41249;47.838;16.490;2023-02-14T00:08:39;101290.47;;;-3.35;76.08
55373;BME280;41249;47.838;16.490;2023-02-14T00:11:06;101282.16;;;-3.28;76.08
55373;BME280;41249;47.838;16.490;2023-02-14T00:13:36;101281.38;;;-3.24;76.05
55373;BME280;41249;47.838;16.490;2023-02-14T00:16:03;101292.28;;;-3.19;76.79
55373;BME280;41249;47.838;16.490;2023-02-14T00:18:29;101281.53;;;-3.03;76.31
55373;BME280;41249;47.838;16.490;2023-02-14T00:21:14;101291.06;;;-3.01;75.90
55373;BME280;41249;47.838;16.490;2023-02-14T00:23:41;101296.53;;;-2.96;75.24
55373;BME280;41249;47.838;16.490;2023-02-14T00:26:14;101281.47;;;-2.77;77.19
55373;BME280;41249;47.838;16.490;2023-02-14T00:28:41;101286.97;;;-2.67;77.88
55373;BME280;41249;47.838;16.490;2023-02-14T00:31:08;101283.91;;;-2.38;76.67
55373;BME280;41249;47.838;16.490;2023-02-14T00:33:35;101283.94;;;-2.28;77.08
55373;BME280;41249;47.838;16.490;2023-02-14T00:36:04;101289.97;;;-2.21;77.14
55373;BME280;41249;47.838;16.490;2023-02-14T00:38:33;101295.97;;;-2.19;76.31
55373;BME280;41249;47.838;16.490;2023-02-14T00:40:59;101287.00;;;-2.15;75.98
55373;BME280;41249;47.838;16.490;2023-02-14T00:43:26;101289.47;;;-2.08;75.70
55373;BME280;41249;47.838;16.490;2023-02-14T00:45:53;101292.75;;;-2.06;75.49
55373;BME280;41249;47.838;16.490;2023-02-14T00:48:19;101288.88;;;-2.20;75.58
55373;BME280;41249;47.838;16.490;2023-02-14T00:50:46;101280.84;;;-2.47;75.62
55373;BME280;41249;47.838;16.490;2023-02-14T00:53:13;101291.66;;;-2.57;76.00
55373;BME280;41249;47.838;16.490;2023-02-14T00:55:40;101291.34;;;-2.66;75.73
55373;BME280;41249;47.838;16.490;2023-02-14T00:58:06;101288.56;;;-2.76;76.11
55373;BME280;41249;47.838;16.490;2023-02-14T01:00:33;101298.72;;;-2.93;76.33
55373;BME280;41249;47.838;16.490;2023-02-14T01:03:00;101286.75;;;-2.97;75.90
55373;BME280;41249;47.838;16.490;2023-02-14T01:05:26;101293.19;;;-3.03;75.84
55373;BME280;41249;47.838;16.490;2023-02-14T01:07:53;101287.16;;;-3.10;77.07
55373;BME280;41249;47.838;16.490;2023-02-14T01:10:19;101291.41;;;-3.24;76.64
55373;BME280;41249;47.838;16.490;2023-02-14T01:12:46;101283.16;;;-3.34;76.00
55373;BME280;41249;47.838;16.490;2023-02-14T01:15:13;101282.78;;;-3.43;76.67
55373;BME280;41249;47.838;16.490;2023-02-14T01:17:39;101280.81;;;-3.52;75.83
55373;BME280;41249;47.838;16.490;2023-02-14T01:20:06;101280.41;;;-3.66;75.64
55373;BME280;41249;47.838;16.490;2023-02-14T01:22:37;101274.59;;;-3.75;76.19
55373;BME280;41249;47.838;16.490;2023-02-14T01:25:04;101280.75;;;-3.84;76.26
55373;BME280;41249;47.838;16.490;2023-02-14T01:27:30;101281.44;;;-3.94;76.02
55373;BME280;41249;47.838;16.490;2023-02-14T01:29:57;101274.31;;;-4.00;76.10
55373;BME280;41249;47.838;16.490;2023-02-14T01:32:24;101269.97;;;-4.01;76.24
55373;BME280;41249;47.838;16.490;2023-02-14T01:34:50;101277.50;;;-4.03;76.48
55373;BME280;41249;47.838;16.490;2023-02-14T01:37:17;101275.91;;;-4.04;77.15
55373;BME280;41249;47.838;16.490;2023-02-14T01:39:43;101262.91;;;-4.02;76.40
55373;BME280;41249;47.838;16.490;2023-02-14T01:42:10;101261.25;;;-4.03;76.32
55373;BME280;41249;47.838;16.490;2023-02-14T01:47:06;101264.28;;;-4.21;76.63
55373;BME280;41249;47.838;16.490;2023-02-14T01:49:38;101253.94;;;-4.24;76.81
55373;BME280;41249;47.838;16.490;2023-02-14T01:52:16;101264.47;;;-4.27;77.11
55373;BME280;41249;47.838;16.490;2023-02-14T01:54:50;101258.47;;;-4.29;76.74
55373;BME280;41249;47.838;16.490;2023-02-14T01:57:18;101253.38;;;-4.26;76.80
55373;BME280;41249;47.838;16.490;2023-02-14T01:59:51;101242.59;;;-4.21;76.18
55373;BME280;41249;47.838;16.490;2023-02-14T02:02:19;101234.47;;;-4.21;76.78
55373;BME280;41249;47.838;16.490;2023-02-14T02:04:52;101245.63;;;-4.17;76.89
55373;BME280;41249;47.838;16.490;2023-02-14T02:07:23;101227.78;;;-4.13;75.87
55373;BME280;41249;47.838;16.490;2023-02-14T02:09:53;101233.75;;;-4.11;76.28
55373;BME280;41249;47.838;16.490;2023-02-14T02:12:21;101227.84;;;-4.08;75.74
55373;BME280;41249;47.838;16.490;2023-02-14T02:14:49;101231.13;;;-4.06;75.26
55373;BME280;41249;47.838;16.490;2023-02-14T02:34:11;101232.09;;;-3.91;75.40
55373;BME280;41249;47.838;16.490;2023-02-14T02:39:21;101231.00;;;-3.90;74.67
55373;BME280;41249;47.838;16.490;2023-02-14T02:42:04;101222.38;;;-3.87;75.57
55373;BME280;41249;47.838;16.490;2023-02-14T02:48:14;101210.91;;;-3.67;74.79
55373;BME280;41249;47.838;16.490;2023-02-14T02:50:48;101205.84;;;-3.58;74.45
55373;BME280;41249;47.838;16.490;2023-02-14T02:56:15;101199.97;;;-3.45;75.30
55373;BME280;41249;47.838;16.490;2023-02-14T02:59:05;101208.41;;;-3.42;75.65
55373;BME280;41249;47.838;16.490;2023-02-14T03:01:48;101202.47;;;-3.39;75.29
55373;BME280;41249;47.838;16.490;2023-02-14T03:04:17;101206.81;;;-3.38;75.16
55373;BME280;41249;47.838;16.490;2023-02-14T03:07:04;101209.34;;;-3.31;75.66
55373;BME280;41249;47.838;16.490;2023-02-14T03:09:54;101207.69;;;-3.32;75.98
55373;BME280;41249;47.838;16.490;2023-02-14T03:29:44;101179.50;;;-3.26;76.49
55373;BME280;41249;47.838;16.490;2023-02-14T03:32:29;101172.50;;;-3.17;76.79
55373;BME280;41249;47.838;16.490;2023-02-14T03:35:17;101174.22;;;-3.06;77.39
55373;BME280;41249;47.838;16.490;2023-02-14T03:40:39;101171.53;;;-3.01;77.30
55373;BME280;41249;47.838;16.490;2023-02-14T03:43:13;101173.81;;;-3.20;77.56
55373;BME280;41249;47.838;16.490;2023-02-14T03:45:49;101169.63;;;-3.37;77.62
55373;BME280;41249;47.838;16.490;2023-02-14T03:48:20;101170.78;;;-3.60;78.52
55373;BME280;41249;47.838;16.490;2023-02-14T03:50:50;101169.63;;;-3.69;77.64
55373;BME280;41249;47.838;16.490;2023-02-14T03:53:21;101170.56;;;-3.58;77.63
55373;BME280;41249;47.838;16.490;2023-02-14T03:56:00;101168.44;;;-3.51;78.98
55373;BME280;41249;47.838;16.490;2023-02-14T03:58:35;101162.69;;;-3.23;78.34
55373;BME280;41249;47.838;16.490;2023-02-14T04:01:10;101158.66;;;-3.16;78.84
55373;BME280;41249;47.838;16.490;2023-02-14T04:03:40;101166.31;;;-3.08;78.86
55373;BME280;41249;47.838;16.490;2023-02-14T04:06:08;101165.81;;;-2.99;77.66
55373;BME280;41249;47.838;16.490;2023-02-14T04:08:35;101160.38;;;-2.99;78.20
55373;BME280;41249;47.838;16.490;2023-02-14T04:11:02;101148.63;;;-3.10;77.51
55373;BME280;41249;47.838;16.490;2023-02-14T04:13:30;101152.53;;;-3.33;77.50
55373;BME280;41249;47.838;16.490;2023-02-14T04:15:57;101141.84;;;-3.49;77.90
55373;BME280;41249;47.838;16.490;2023-02-14T04:18:23;101146.31;;;-3.65;78.45
55373;BME280;41249;47.838;16.490;2023-02-14T04:21:08;101152.81;;;-3.71;78.72
55373;BME280;41249;47.838;16.490;2023-02-14T04:23:35;101145.44;;;-3.76;78.59
55373;BME280;41249;47.838;16.490;2023-02-14T04:26:01;101150.50;;;-3.84;79.30
55373;BME280;41249;47.838;16.490;2023-02-14T04:28:29;101149.91;;;-3.91;79.08
55373;BME280;41249;47.838;16.490;2023-02-14T04:30:59;101151.94;;;-4.03;78.20
55373;BME280;41249;47.838;16.490;2023-02-14T04:33:27;101141.94;;;-3.98;79.23
55373;BME280;41249;47.838;16.490;2023-02-14T04:35:54;101138.03;;;-4.12;79.07
55373;BME280;41249;47.838;16.490;2023-02-14T04:38:21;101136.81;;;-4.26;79.92
55373;BME280;41249;47.838;16.490;2023-02-14T04:40:48;101135.56;;;-3.87;81.00
55373;BME280;41249;47.838;16.490;2023-02-14T04:43:15;101136.16;;;-3.80;80.04
55373;BME280;41249;47.838;16.490;2023-02-14T04:45:42;101137.66;;;-3.62;80.11
55373;BME280;41249;47.838;16.490;2023-02-14T04:48:08;101135.84;;;-3.15;80.76
55373;BME280;41249;47.838;16.490;2023-02-14T04:50:35;101139.00;;;-2.86;80.01
55373;BME280;41249;47.838;16.490;2023-02-14T04:53:02;101128.47;;;-2.67;80.26
55373;BME280;41249;47.838;16.490;2023-02-14T04:55:29;101130.47;;;-2.43;79.32
55373;BME280;41249;47.838;16.490;2023-02-14T04:57:55;101134.56;;;-2.35;78.62
55373;BME280;41249;47.838;16.490;2023-02-14T05:00:22;101135.94;;;-2.32;78.64
55373;BME280;41249;47.838;16.490;2023-02-14T05:02:49;101129.44;;;-2.31;78.67
55373;BME280;41249;47.838;16.490;2023-02-14T05:05:16;101137.63;;;-2.16;78.58
55373;BME280;41249;47.838;16.490;2023-02-14T05:07:42;101140.84;;;-2.29;77.85
55373;BME280;41249;47.838;16.490;2023-02-14T05:10:13;101134.00;;;-2.47;78.47
55373;BME280;41249;47.838;16.490;2023-02-14T05:12:40;101129.63;;;-2.53;78.30
55373;BME280;41249;47.838;16.490;2023-02-14T05:15:07;101133.69;;;-2.56;78.38
55373;BME280;41249;47.838;16.490;2023-02-14T05:17:34;101124.13;;;-2.73;78.91
55373;BME280;41249;47.838;16.490;2023-02-14T05:20:03;101128.97;;;-2.80;78.92
55373;BME280;41249;47.838;16.490;2023-02-14T05:22:31;101139.25;;;-2.87;79.43
55373;BME280;41249;47.838;16.490;2023-02-14T05:24:57;101128.13;;;-2.91;79.27
55373;BME280;41249;47.838;16.490;2023-02-14T05:27:24;101135.16;;;-2.90;79.74
55373;BME280;41249;47.838;16.490;2023-02-14T05:29:50;101135.16;;;-2.90;79.63
55373;BME280;41249;47.838;16.490;2023-02-14T05:32:17;101127.56;;;-2.88;79.56
55373;BME280;41249;47.838;16.490;2023-02-14T05:34:43;101128.66;;;-2.89;79.27
55373;BME280;41249;47.838;16.490;2023-02-14T05:37:10;101130.00;;;-2.91;79.57
55373;BME280;41249;47.838;16.490;2023-02-14T05:39:36;101122.19;;;-2.73;78.95
55373;BME280;41249;47.838;16.490;2023-02-14T05:42:03;101122.78;;;-2.71;78.73
55373;BME280;41249;47.838;16.490;2023-02-14T05:44:30;101131.31;;;-2.99;78.98
55373;BME280;41249;47.838;16.490;2023-02-14T05:46:56;101125.97;;;-3.31;78.86
55373;BME280;41249;47.838;16.490;2023-02-14T05:49:23;101123.31;;;-3.57;78.28
55373;BME280;41249;47.838;16.490;2023-02-14T05:51:49;101123.78;;;-3.71;79.21
55373;BME280;41249;47.838;16.490;2023-02-14T05:54:16;101121.47;;;-3.84;79.25
55373;BME280;41249;47.838;16.490;2023-02-14T05:56:42;101130.25;;;-4.03;80.20
55373;BME280;41249;47.838;16.490;2023-02-14T05:59:09;101124.50;;;-4.07;79.49
55373;BME280;41249;47.838;16.490;2023-02-14T06:01:35;101134.97;;;-4.20;80.35
55373;BME280;41249;47.838;16.490;2023-02-14T06:04:02;101139.25;;;-4.24;79.86
55373;BME280;41249;47.838;16.490;2023-02-14T06:06:29;101138.63;;;-4.31;80.18
55373;BME280;41249;47.838;16.490;2023-02-14T06:08:55;101134.84;;;-4.30;80.34
55373;BME280;41249;47.838;16.490;2023-02-14T06:11:22;101143.22;;;-4.32;79.80
55373;BME280;41249;47.838;16.490;2023-02-14T06:13:48;101143.06;;;-4.47;80.74
55373;BME280;41249;47.838;16.490;2023-02-14T06:16:15;101138.16;;;-4.72;79.91
55373;BME280;41249;47.838;16.490;2023-02-14T06:18:41;101134.19;;;-4.64;80.96
55373;BME280;41249;47.838;16.490;2023-02-14T06:21:08;101139.09;;;-4.61;80.13
55373;BME280;41249;47.838;16.490;2023-02-14T06:23:34;101152.16;;;-4.58;80.36
55373;BME280;41249;47.838;16.490;2023-02-14T06:26:01;101151.69;;;-4.50;79.69
55373;BME280;41249;47.838;16.490;2023-02-14T06:28:29;101147.41;;;-4.46;79.34
55373;BME280;41249;47.838;16.490;2023-02-14T06:30:55;101148.75;;;-4.49;79.09
55373;BME280;41249;47.838;16.490;2023-02-14T06:33:22;101154.94;;;-4.53;79.65
55373;BME280;41249;47.838;16.490;2023-02-14T06:35:48;101155.03;;;-4.43;79.65
55373;BME280;41249;47.838;16.490;2023-02-14T06:38:15;101156.72;;;-4.37;79.29
55373;BME280;41249;47.838;16.490;2023-02-14T06:40:42;101164.97;;;-4.27;79.59
55373;BME280;41249;47.838;16.490;2023-02-14T06:43:08;101163.41;;;-4.23;79.24
55373;BME280;41249;47.838;16.490;2023-02-14T06:45:35;101163.03;;;-4.05;79.78
55373;BME280;41249;47.838;16.490;2023-02-14T06:48:01;101160.25;;;-3.56;79.45
55373;BME280;41249;47.838;16.490;2023-02-14T06:50:29;101168.44;;;-3.51;78.73
55373;BME280;41249;47.838;16.490;2023-02-14T06:52:55;101160.88;;;-3.44;78.50
55373;BME280;41249;47.838;16.490;2023-02-14T06:55:22;101160.72;;;-3.28;79.10
55373;BME280;41249;47.838;16.490;2023-02-14T06:57:48;101169.19;;;-3.24;78.48
55373;BME280;41249;47.838;16.490;2023-02-14T07:00:15;101174.19;;;-3.11;78.51
55373;BME280;41249;47.838;16.490;2023-02-14T07:02:42;101173.97;;;-2.99;78.83
55373;BME280;41249;47.838;16.490;2023-02-14T07:05:09;101171.28;;;-2.94;78.15
55373;BME280;41249;47.838;16.490;2023-02-14T07:07:36;101172.50;;;-2.70;77.83
55373;BME280;41249;47.838;16.490;2023-02-14T07:10:02;101175.56;;;-2.57;77.79
55373;BME280;41249;47.838;16.490;2023-02-14T07:12:29;101168.03;;;-2.40;78.08
55373;BME280;41249;47.838;16.490;2023-02-14T07:14:56;101168.88;;;-2.29;77.27
55373;BME280;41249;47.838;16.490;2023-02-14T07:17:22;101174.56;;;-2.35;77.42
55373;BME280;41249;47.838;16.490;2023-02-14T07:19:49;101173.78;;;-2.26;77.25
55373;BME280;41249;47.838;16.490;2023-02-14T07:22:15;101174.88;;;-2.27;76.75
55373;BME280;41249;47.838;16.490;2023-02-14T07:24:42;101189.31;;;-2.16;77.48
55373;BME280;41249;47.838;16.490;2023-02-14T07:27:09;101184.50;;;-1.94;77.85
55373;BME280;41249;47.838;16.490;2023-02-14T07:29:35;101188.31;;;-1.80;77.13
55373;BME280;41249;47.838;16.490;2023-02-14T07:32:03;101187.25;;;-1.69;77.07
55373;BME280;41249;47.838;16.490;2023-02-14T07:34:29;101179.63;;;-1.52;76.95
55373;BME280;41249;47.838;16.490;2023-02-14T07:36:56;101187.00;;;-1.27;76.67
55373;BME280;41249;47.838;16.490;2023-02-14T07:39:23;101175.78;;;-1.11;75.81
55373;BME280;41249;47.838;16.490;2023-02-14T07:41:49;101177.13;;;-0.83;76.12
55373;BME280;41249;47.838;16.490;2023-02-14T07:44:16;101180.06;;;-0.64;75.48
55373;BME280;41249;47.838;16.490;2023-02-14T07:46:42;101176.72;;;-0.51;75.73
55373;BME280;41249;47.838;16.490;2023-02-14T07:49:09;101181.94;;;0.04;75.12
55373;BME280;41249;47.838;16.490;2023-02-14T07:51:36;101180.03;;;0.44;73.62
55373;BME280;41249;47.838;16.490;2023-02-14T07:54:03;101183.72;;;0.63;72.72
55373;BME280;41249;47.838;16.490;2023-02-14T07:56:30;101186.84;;;0.80;72.48
55373;BME280;41249;47.838;16.490;2023-02-14T07:58:56;101183.72;;;0.97;68.93
55373;BME280;41249;47.838;16.490;2023-02-14T08:01:23;101195.38;;;1.07;67.27
55373;BME280;41249;47.838;16.490;2023-02-14T08:03:50;101184.94;;;0.86;67.60
55373;BME280;41249;47.838;16.490;2023-02-14T08:06:18;101186.66;;;1.05;67.75
55373;BME280;41249;47.838;16.490;2023-02-14T08:08:45;101182.81;;;1.06;67.73
55373;BME280;41249;47.838;16.490;2023-02-14T08:11:12;101179.34;;;1.24;68.65
55373;BME280;41249;47.838;16.490;2023-02-14T08:14:03;101185.69;;;1.43;68.34
55373;BME280;41249;47.838;16.490;2023-02-14T08:16:30;101182.94;;;1.43;67.14
55373;BME280;41249;47.838;16.490;2023-02-14T08:19:00;101196.28;;;1.74;67.13
55373;BME280;41249;47.838;16.490;2023-02-14T08:21:27;101191.81;;;2.01;66.81
55373;BME280;41249;47.838;16.490;2023-02-14T08:23:54;101199.50;;;2.18;66.50
55373;BME280;41249;47.838;16.490;2023-02-14T08:26:21;101200.34;;;2.00;65.81
55373;BME280;41249;47.838;16.490;2023-02-14T08:28:47;101206.50;;;2.29;62.91
55373;BME280;41249;47.838;16.490;2023-02-14T08:31:24;101204.69;;;2.38;64.64
55373;BME280;41249;47.838;16.490;2023-02-14T08:34:02;101210.31;;;2.65;63.09
55373;BME280;41249;47.838;16.490;2023-02-14T08:36:28;101206.06;;;2.73;62.72
55373;BME280;41249;47.838;16.490;2023-02-14T08:38:55;101202.88;;;2.85;62.47
55373;BME280;41249;47.838;16.490;2023-02-14T08:41:23;101217.06;;;2.54;63.73
55373;BME280;41249;47.838;16.490;2023-02-14T08:43:50;101208.31;;;2.71;63.04
55373;BME280;41249;47.838;16.490;2023-02-14T08:46:16;101209.25;;;2.48;62.80
55373;BME280;41249;47.838;16.490;2023-02-14T08:48:43;101219.84;;;2.87;63.07
55373;BME280;41249;47.838;16.490;2023-02-14T08:51:12;101211.19;;;3.12;62.44
55373;BME280;41249;47.838;16.490;2023-02-14T08:53:40;101218.13;;;2.91;61.81
55373;BME280;41249;47.838;16.490;2023-02-14T08:56:09;101223.72;;;2.67;63.21
55373;BME280;41249;47.838;16.490;2023-02-14T08:58:36;101233.44;;;2.59;60.97
55373;BME280;41249;47.838;16.490;2023-02-14T09:01:13;101223.00;;;2.24;62.35
55373;BME280;41249;47.838;16.490;2023-02-14T09:03:40;101221.44;;;2.18;62.90
55373;BME280;41249;47.838;16.490;2023-02-14T09:06:09;101238.09;;;2.03;63.28
55373;BME280;41249;47.838;16.490;2023-02-14T09:08:38;101243.28;;;2.04;63.28
55373;BME280;41249;47.838;16.490;2023-02-14T09:11:12;101231.63;;;1.94;63.29
55373;BME280;41249;47.838;16.490;2023-02-14T09:13:41;101232.25;;;1.86;63.83
55373;BME280;41249;47.838;16.490;2023-02-14T09:16:12;101228.09;;;1.70;63.76
55373;BME280;41249;47.838;16.490;2023-02-14T09:18:39;101243.47;;;2.08;63.79
55373;BME280;41249;47.838;16.490;2023-02-14T09:21:08;101242.91;;;2.11;63.10
55373;BME280;41249;47.838;16.490;2023-02-14T09:23:35;101243.16;;;1.91;64.19
55373;BME280;41249;47.838;16.490;2023-02-14T09:26:05;101240.41;;;2.33;62.95
55373;BME280;41249;47.838;16.490;2023-02-14T09:28:33;101240.97;;;2.11;64.09
55373;BME280;41249;47.838;16.490;2023-02-14T09:31:12;101234.34;;;2.36;63.59
55373;BME280;41249;47.838;16.490;2023-02-14T09:33:40;101245.50;;;2.58;62.40
55373;BME280;41249;47.838;16.490;2023-02-14T09:36:26;101245.69;;;2.30;63.48
55373;BME280;41249;47.838;16.490;2023-02-14T09:39:11;101240.63;;;2.55;63.85
55373;BME280;41249;47.838;16.490;2023-02-14T09:47:05;101245.00;;;2.19;63.08
55373;BME280;41249;47.838;16.490;2023-02-14T09:49:36;101246.22;;;2.50;62.78
55373;BME280;41249;47.838;16.490;2023-02-14T09:52:08;101240.31;;;2.20;63.97
55373;BME280;41249;47.838;16.490;2023-02-14T09:54:39;101247.44;;;2.39;63.38
55373;BME280;41249;47.838;16.490;2023-02-14T09:57:30;101247.66;;;1.82;63.87
55373;BME280;41249;47.838;16.490;2023-02-14T10:02:57;101242.69;;;1.84;64.40
55373;BME280;41249;47.838;16.490;2023-02-14T10:05:35;101240.47;;;1.86;64.11
55373;BME280;41249;47.838;16.490;2023-02-14T10:11:02;101242.34;;;1.43;65.25
55373;BME280;41249;47.838;16.490;2023-02-14T10:13:38;101265.25;;;1.52;64.45
55373;BME280;41249;47.838;16.490;2023-02-14T10:16:24;101241.91;;;1.31;65.06
55373;BME280;41249;47.838;16.490;2023-02-14T10:19:05;101252.69;;;1.46;64.67
55373;BME280;41249;47.838;16.490;2023-02-14T10:21:38;101235.53;;;1.64;64.63
55373;BME280;41249;47.838;16.490;2023-02-14T10:24:15;101231.34;;;1.72;63.61
55373;BME280;41249;47.838;16.490;2023-02-14T10:26:44;101244.91;;;1.82;62.52
55373;BME280;41249;47.838;16.490;2023-02-14T10:29:15;101248.28;;;1.74;63.74
55373;BME280;41249;47.838;16.490;2023-02-14T10:42:44;101235.91;;;2.42;62.97
55373;BME280;41249;47.838;16.490;2023-02-14T10:45:36;101228.50;;;2.43;62.59
55373;BME280;41249;47.838;16.490;2023-02-14T10:56:16;101220.84;;;2.77;61.17
55373;BME280;41249;47.838;16.490;2023-02-14T10:58:45;101219.59;;;2.69;61.18
55373;BME280;41249;47.838;16.490;2023-02-14T11:01:16;101225.22;;;2.41;61.81
55373;BME280;41249;47.838;16.490;2023-02-14T11:03:57;101205.31;;;2.35;61.56
55373;BME280;41249;47.838;16.490;2023-02-14T11:06:36;101217.38;;;2.34;60.47
55373;BME280;41249;47.838;16.490;2023-02-14T11:09:03;101201.97;;;2.20;61.14
55373;BME280;41249;47.838;16.490;2023-02-14T11:14:25;101197.00;;;2.22;61.95
55373;BME280;41249;47.838;16.490;2023-02-14T11:16:53;101213.16;;;1.81;61.69
55373;BME280;41249;47.838;16.490;2023-02-14T11:21:57;101204.69;;;2.01;62.06
55373;BME280;41249;47.838;16.490;2023-02-14T11:24:34;101196.78;;;1.76;62.10
55373;BME280;41249;47.838;16.490;2023-02-14T11:27:14;101196.47;;;2.01;62.55
55373;BME280;41249;47.838;16.490;2023-02-14T11:29:45;101196.69;;;2.23;62.02
55373;BME280;41249;47.838;16.490;2023-02-14T11:32:19;101194.28;;;2.03;61.86
55373;BME280;41249;47.838;16.490;2023-02-14T11:34:54;101189.69;;;2.17;61.82
55373;BME280;41249;47.838;16.490;2023-02-14T11:37:30;101195.09;;;2.22;61.38
55373;BME280;41249;47.838;16.490;2023-02-14T11:40:00;101197.22;;;2.06;61.31
55373;BME280;41249;47.838;16.490;2023-02-14T11:42:39;101179.88;;;1.92;61.92
55373;BME280;41249;47.838;16.490;2023-02-14T11:45:26;101180.91;;;1.78;61.97
55373;BME280;41249;47.838;16.490;2023-02-14T11:48:21;101186.25;;;2.06;61.27
55373;BME280;41249;47.838;16.490;2023-02-14T11:51:06;101187.28;;;2.10;61.37
55373;BME280;41249;47.838;16.490;2023-02-14T11:53:55;101183.72;;;1.73;61.87
55373;BME280;41249;47.838;16.490;2023-02-14T11:56:22;101187.78;;;1.94;61.98
55373;BME280;41249;47.838;16.490;2023-02-14T11:58:58;101184.22;;;1.75;61.85
55373;BME280;41249;47.838;16.490;2023-02-14T12:01:33;101178.50;;;1.71;62.07
55373;BME280;41249;47.838;16.490;2023-02-14T12:04:13;101168.34;;;2.14;61.30
55373;BME280;41249;47.838;16.490;2023-02-14T12:06:40;101175.53;;;2.10;61.08
55373;BME280;41249;47.838;16.490;2023-02-14T12:09:25;101170.09;;;1.86;61.27
55373;BME280;41249;47.838;16.490;2023-02-14T12:11:56;101153.97;;;2.03;61.66
55373;BME280;41249;47.838;16.490;2023-02-14T12:14:28;101156.84;;;2.82;60.32
55373;BME280;41249;47.838;16.490;2023-02-14T12:17:23;101147.50;;;3.28;57.78
55373;BME280;41249;47.838;16.490;2023-02-14T12:20:15;101146.25;;;3.07;58.73
55373;BME280;41249;47.838;16.490;2023-02-14T12:23:38;101149.34;;;2.87;58.88
55373;BME280;41249;47.838;16.490;2023-02-14T12:25:48;101148.97;;;2.61;59.31
55373;BME280;41249;47.838;16.490;2023-02-14T12:28:20;101138.00;;;3.21;58.17
55373;BME280;41249;47.838;16.490;2023-02-14T12:30:49;101149.38;;;2.68;58.14
55373;BME280;41249;47.838;16.490;2023-02-14T12:33:20;101138.50;;;2.63;59.34
55373;BME280;41249;47.838;16.490;2023-02-14T12:43:47;101138.09;;;3.02;58.57
55373;BME280;41249;47.838;16.490;2023-02-14T12:49:28;101126.56;;;3.32;57.17
55373;BME280;41249;47.838;16.490;2023-02-14T12:57:29;101128.28;;;3.42;58.22
55373;BME280;41249;47.838;16.490;2023-02-14T13:07:55;101127.94;;;3.16;58.32
55373;BME280;41249;47.838;16.490;2023-02-14T13:10:51;101135.03;;;2.90;58.12
55373;BME280;41249;47.838;16.490;2023-02-14T13:18:58;101117.53;;;2.22;59.83
55373;BME280;41249;47.838;16.490;2023-02-14T13:21:29;101127.00;;;2.29;59.48
55373;BME280;41249;47.838;16.490;2023-02-14T13:26:42;101115.22;;;2.47;59.71
55373;BME280;41249;47.838;16.490;2023-02-14T13:29:16;101125.38;;;2.60;59.01
55373;BME280;41249;47.838;16.490;2023-02-14T13:31:44;101113.78;;;2.96;59.46
55373;BME280;41249;47.838;16.490;2023-02-14T13:34:24;101123.38;;;3.12;57.39
55373;BME280;41249;47.838;16.490;2023-02-14T13:36:55;101121.13;;;2.54;58.60
55373;BME280;41249;47.838;16.490;2023-02-14T13:39:39;101127.09;;;2.24;60.04
55373;BME280;41249;47.838;16.490;2023-02-14T13:42:09;101118.88;;;2.24;60.20
55373;BME280;41249;47.838;16.490;2023-02-14T13:44:47;101121.97;;;2.68;59.37
55373;BME280;41249;47.838;16.490;2023-02-14T13:47:24;101126.81;;;2.58;59.50
55373;BME280;41249;47.838;16.490;2023-02-14T13:49:58;101115.47;;;2.64;58.81
55373;BME280;41249;47.838;16.490;2023-02-14T13:52:42;101118.88;;;2.24;59.40
55373;BME280;41249;47.838;16.490;2023-02-14T13:55:18;101104.63;;;2.41;59.41
55373;BME280;41249;47.838;16.490;2023-02-14T13:57:59;101114.78;;;2.40;59.08
55373;BME280;41249;47.838;16.490;2023-02-14T14:00:41;101101.78;;;2.46;59.28
55373;BME280;41249;47.838;16.490;2023-02-14T14:03:14;101114.16;;;2.43;59.80
55373;BME280;41249;47.838;16.490;2023-02-14T14:06:07;101117.19;;;2.09;59.42
55373;BME280;41249;47.838;16.490;2023-02-14T14:08:43;101104.00;;;1.74;60.70
55373;BME280;41249;47.838;16.490;2023-02-14T14:11:12;101111.78;;;1.86;60.99
55373;BME280;41249;47.838;16.490;2023-02-14T14:16:59;101107.78;;;1.97;59.82
55373;BME280;41249;47.838;16.490;2023-02-14T14:24:30;101105.66;;;1.75;60.71
55373;BME280;41249;47.838;16.490;2023-02-14T14:29:54;101113.03;;;1.75;61.34
55373;BME280;41249;47.838;16.490;2023-02-14T14:32:33;101103.69;;;1.76;60.99
55373;BME280;41249;47.838;16.490;2023-02-14T14:37:33;101092.97;;;1.79;61.19
55373;BME280;41249;47.838;16.490;2023-02-14T14:40:04;101104.03;;;1.93;61.51
55373;BME280;41249;47.838;16.490;2023-02-14T14:42:35;101094.47;;;1.53;62.02
55373;BME280;41249;47.838;16.490;2023-02-14T14:45:07;101091.53;;;1.44;62.03
55373;BME280;41249;47.838;16.490;2023-02-14T14:47:44;101090.72;;;1.44;62.28
55373;BME280;41249;47.838;16.490;2023-02-14T14:50:18;101089.06;;;1.24;62.70
55373;BME280;41249;47.838;16.490;2023-02-14T14:52:50;101090.69;;;1.02;62.74
55373;BME280;41249;47.838;16.490;2023-02-14T14:55:26;101084.31;;;0.82;63.87
55373;BME280;41249;47.838;16.490;2023-02-14T14:57:56;101079.13;;;0.81;63.61
55373;BME280;41249;47.838;16.490;2023-02-14T15:00:29;101077.72;;;0.83;63.72
55373;BME280;41249;47.838;16.490;2023-02-14T15:03:01;101081.56;;;0.88;63.77
55373;BME280;41249;47.838;16.490;2023-02-14T15:05:46;101082.72;;;0.76;63.44
55373;BME280;41249;47.838;16.490;2023-02-14T15:10:49;101083.69;;;0.62;64.04
55373;BME280;41249;47.838;16.490;2023-02-14T15:13:17;101077.06;;;0.39;65.29
55373;BME280;41249;47.838;16.490;2023-02-14T15:16:02;101072.63;;;0.48;64.80
55373;BME280;41249;47.838;16.490;2023-02-14T15:18:29;101069.69;;;0.40;65.07